sensor_id;sensor_type;location;lat;lon;timestamp;pressure;altitude;pressure_sealevel;temperature;humidity
45991;BME280;31721;41.740;-88.000;2023-01-10T00:00:47;99006.16;;;3.83;54.35
45991;BME280;31721;41.740;-88.000;2023-01-10T00:03:16;99001.37;;;3.30;55.15
45991;BME280;31721;41.740;-88.000;2023-01-10T00:05:44;98999.37;;;3.53;54.56
45991;BME280;31721;41.740;-88.000;2023-01-10T00:08:15;98992.49;;;3.57;54.49
45991;BME280;31721;41.740;-88.000;2023-01-10T00:10:43;98992.41;;;3.46;54.25
45991;BME280;31721;41.740;-88.000;2023-01-10T00:13:14;98983.81;;;3.22;55.12
45991;BME280;31721;41.740;-88.000;2023-01-10T00:15:42;98978.45;;;3.56;54.97
45991;BME280;31721;41.740;-88.000;2023-01-10T00:18:11;98976.16;;;3.53;55.64
45991;BME280;31721;41.740;-88.000;2023-01-10T00:20:44;98977.58;;;3.19;57.12
45991;BME280;31721;41.740;-88.000;2023-01-10T00:23:12;98984.36;;;3.18;56.08
45991;BME280;31721;41.740;-88.000;2023-01-10T00:25:40;98980.02;;;3.20;55.16
45991;BME280;31721;41.740;-88.000;2023-01-10T00:28:08;98982.74;;;3.28;55.75
45991;BME280;31721;41.740;-88.000;2023-01-10T00:30:37;98980.01;;;3.07;55.78
45991;BME280;31721;41.740;-88.000;2023-01-10T00:33:05;98969.21;;;3.32;55.91
45991;BME280;31721;41.740;-88.000;2023-01-10T00:35:34;98976.79;;;2.90;57.92
45991;BME280;31721;41.740;-88.000;2023-01-10T00:38:02;98973.69;;;2.54;59.28
45991;BME280;31721;41.740;-88.000;2023-01-10T00:40:30;98976.30;;;2.85;57.27
45991;BME280;31721;41.740;-88.000;2023-01-10T00:42:58;98977.46;;;2.64;59.73
45991;BME280;31721;41.740;-88.000;2023-01-10T00:45:26;98970.98;;;2.87;57.18
45991;BME280;31721;41.740;-88.000;2023-01-10T00:47:55;98970.53;;;2.79;58.25
45991;BME280;31721;41.740;-88.000;2023-01-10T00:50:22;98973.94;;;2.89;58.36
45991;BME280;31721;41.740;-88.000;2023-01-10T00:52:50;98971.75;;;2.89;58.08
45991;BME280;31721;41.740;-88.000;2023-01-10T00:55:18;98967.83;;;3.12;57.00
45991;BME280;31721;41.740;-88.000;2023-01-10T00:57:46;98978.29;;;2.91;57.64
45991;BME280;31721;41.740;-88.000;2023-01-10T01:00:14;98982.82;;;3.12;58.13
45991;BME280;31721;41.740;-88.000;2023-01-10T01:02:42;98985.27;;;2.90;59.32
45991;BME280;31721;41.740;-88.000;2023-01-10T01:05:10;98980.38;;;3.26;57.09
45991;BME280;31721;41.740;-88.000;2023-01-10T01:07:38;98971.56;;;3.31;57.01
45991;BME280;31721;41.740;-88.000;2023-01-10T01:10:06;98974.51;;;3.04;57.75
45991;BME280;31721;41.740;-88.000;2023-01-10T01:12:34;98968.17;;;3.16;57.19
45991;BME280;31721;41.740;-88.000;2023-01-10T01:15:02;98966.86;;;2.80;59.26
45991;BME280;31721;41.740;-88.000;2023-01-10T01:17:31;98969.34;;;2.80;57.95
45991;BME280;31721;41.740;-88.000;2023-01-10T01:19:59;98971.02;;;2.82;59.24
45991;BME280;31721;41.740;-88.000;2023-01-10T01:22:26;98969.32;;;2.83;58.37
45991;BME280;31721;41.740;-88.000;2023-01-10T01:24:55;98970.12;;;2.83;58.99
45991;BME280;31721;41.740;-88.000;2023-01-10T01:27:22;98969.56;;;2.99;58.34
45991;BME280;31721;41.740;-88.000;2023-01-10T01:29:50;98971.63;;;3.02;57.85
45991;BME280;31721;41.740;-88.000;2023-01-10T01:32:18;98962.45;;;2.72;59.91
45991;BME280;31721;41.740;-88.000;2023-01-10T01:34:46;98966.97;;;2.82;59.61
45991;BME280;31721;41.740;-88.000;2023-01-10T01:37:14;98965.11;;;2.88;59.20
45991;BME280;31721;41.740;-88.000;2023-01-10T01:39:42;98967.18;;;3.02;58.69
45991;BME280;31721;41.740;-88.000;2023-01-10T01:42:20;98957.16;;;2.84;59.10
45991;BME280;31721;41.740;-88.000;2023-01-10T01:45:44;98947.46;;;2.95;58.25
45991;BME280;31721;41.740;-88.000;2023-01-10T01:48:19;98956.39;;;2.88;58.95
45991;BME280;31721;41.740;-88.000;2023-01-10T01:50:52;98951.50;;;2.76;59.38
45991;BME280;31721;41.740;-88.000;2023-01-10T01:53:26;98952.36;;;3.10;57.89
45991;BME280;31721;41.740;-88.000;2023-01-10T01:56:00;98955.57;;;2.82;58.28
45991;BME280;31721;41.740;-88.000;2023-01-10T01:58:40;98955.46;;;2.72;59.08
45991;BME280;31721;41.740;-88.000;2023-01-10T02:01:11;98952.92;;;2.72;58.72
45991;BME280;31721;41.740;-88.000;2023-01-10T02:03:40;98959.37;;;2.64;59.39
45991;BME280;31721;41.740;-88.000;2023-01-10T02:06:09;98963.29;;;2.86;58.75
45991;BME280;31721;41.740;-88.000;2023-01-10T02:08:38;98964.63;;;2.97;58.65
45991;BME280;31721;41.740;-88.000;2023-01-10T02:11:09;98961.27;;;2.89;59.03
45991;BME280;31721;41.740;-88.000;2023-01-10T02:13:40;98959.43;;;2.83;58.77
45991;BME280;31721;41.740;-88.000;2023-01-10T02:16:09;98957.20;;;3.04;58.26
45991;BME280;31721;41.740;-88.000;2023-01-10T02:18:39;98956.30;;;3.15;57.62
45991;BME280;31721;41.740;-88.000;2023-01-10T02:21:18;98956.19;;;3.00;58.62
45991;BME280;31721;41.740;-88.000;2023-01-10T02:24:24;98951.85;;;2.62;59.52
45991;BME280;31721;41.740;-88.000;2023-01-10T02:27:07;98945.76;;;2.75;58.63
45991;BME280;31721;41.740;-88.000;2023-01-10T02:35:19;98925.56;;;2.33;60.26
45991;BME280;31721;41.740;-88.000;2023-01-10T02:37:56;98932.88;;;2.08;60.69
45991;BME280;31721;41.740;-88.000;2023-01-10T02:40:35;98928.70;;;2.31;59.38
45991;BME280;31721;41.740;-88.000;2023-01-10T02:43:09;98918.86;;;2.18;59.91
45991;BME280;31721;41.740;-88.000;2023-01-10T02:45:43;98926.77;;;2.45;59.55
45991;BME280;31721;41.740;-88.000;2023-01-10T02:48:15;98929.65;;;2.12;60.03
45991;BME280;31721;41.740;-88.000;2023-01-10T02:50:51;98933.47;;;2.67;59.04
45991;BME280;31721;41.740;-88.000;2023-01-10T02:53:23;98936.33;;;2.52;59.55
45991;BME280;31721;41.740;-88.000;2023-01-10T02:56:15;98942.83;;;2.49;59.95
45991;BME280;31721;41.740;-88.000;2023-01-10T02:58:58;98935.25;;;2.35;59.56
45991;BME280;31721;41.740;-88.000;2023-01-10T03:01:33;98936.47;;;2.15;60.43
45991;BME280;31721;41.740;-88.000;2023-01-10T03:04:11;98926.55;;;2.20;59.90
45991;BME280;31721;41.740;-88.000;2023-01-10T03:06:45;98921.49;;;2.09;60.46
45991;BME280;31721;41.740;-88.000;2023-01-10T03:09:19;98928.58;;;2.36;59.07
45991;BME280;31721;41.740;-88.000;2023-01-10T03:11:49;98926.06;;;1.86;61.44
45991;BME280;31721;41.740;-88.000;2023-01-10T03:14:21;98925.43;;;2.01;60.48
45991;BME280;31721;41.740;-88.000;2023-01-10T03:16:53;98917.58;;;1.98;61.00
45991;BME280;31721;41.740;-88.000;2023-01-10T03:19:26;98912.20;;;1.97;60.45
45991;BME280;31721;41.740;-88.000;2023-01-10T03:21:56;98911.01;;;2.17;60.66
45991;BME280;31721;41.740;-88.000;2023-01-10T03:24:29;98909.05;;;1.89;61.38
45991;BME280;31721;41.740;-88.000;2023-01-10T03:27:04;98904.15;;;2.06;60.31
45991;BME280;31721;41.740;-88.000;2023-01-10T03:29:37;98902.89;;;1.78;61.82
45991;BME280;31721;41.740;-88.000;2023-01-10T03:32:09;98898.82;;;1.70;62.08
45991;BME280;31721;41.740;-88.000;2023-01-10T03:34:38;98890.86;;;1.62;62.25
45991;BME280;31721;41.740;-88.000;2023-01-10T03:37:12;98888.15;;;1.74;61.53
45991;BME280;31721;41.740;-88.000;2023-01-10T03:39:48;98884.74;;;1.55;61.96
45991;BME280;31721;41.740;-88.000;2023-01-10T03:42:22;98878.42;;;1.71;61.15
45991;BME280;31721;41.740;-88.000;2023-01-10T03:44:57;98868.89;;;1.74;60.65
45991;BME280;31721;41.740;-88.000;2023-01-10T03:47:33;98871.24;;;1.61;62.14
45991;BME280;31721;41.740;-88.000;2023-01-10T03:50:07;98867.80;;;1.64;61.86
45991;BME280;31721;41.740;-88.000;2023-01-10T03:52:39;98869.43;;;1.45;62.14
45991;BME280;31721;41.740;-88.000;2023-01-10T03:55:10;98866.03;;;1.66;61.84
45991;BME280;31721;41.740;-88.000;2023-01-10T03:57:41;98868.59;;;1.89;60.63
45991;BME280;31721;41.740;-88.000;2023-01-10T04:00:11;98868.48;;;2.13;60.31
45991;BME280;31721;41.740;-88.000;2023-01-10T04:02:39;98869.21;;;1.89;60.66
45991;BME280;31721;41.740;-88.000;2023-01-10T04:05:07;98862.98;;;1.81;61.03
45991;BME280;31721;41.740;-88.000;2023-01-10T04:07:34;98860.14;;;1.43;62.08
45991;BME280;31721;41.740;-88.000;2023-01-10T04:10:03;98859.95;;;1.60;61.59
45991;BME280;31721;41.740;-88.000;2023-01-10T04:12:30;98864.99;;;1.36;61.99
45991;BME280;31721;41.740;-88.000;2023-01-10T04:14:58;98866.75;;;1.81;61.03
45991;BME280;31721;41.740;-88.000;2023-01-10T04:17:26;98867.82;;;1.84;60.82
45991;BME280;31721;41.740;-88.000;2023-01-10T04:19:54;98864.60;;;1.91;60.69
45991;BME280;31721;41.740;-88.000;2023-01-10T04:22:22;98860.82;;;1.82;60.80
45991;BME280;31721;41.740;-88.000;2023-01-10T04:24:50;98865.47;;;1.58;61.69
45991;BME280;31721;41.740;-88.000;2023-01-10T04:27:18;98863.81;;;1.80;60.72
45991;BME280;31721;41.740;-88.000;2023-01-10T04:29:47;98863.27;;;1.53;61.38
45991;BME280;31721;41.740;-88.000;2023-01-10T04:32:15;98861.50;;;1.89;60.66
45991;BME280;31721;41.740;-88.000;2023-01-10T04:34:43;98858.25;;;2.00;60.85
45991;BME280;31721;41.740;-88.000;2023-01-10T04:37:11;98858.04;;;1.71;60.86
45991;BME280;31721;41.740;-88.000;2023-01-10T04:39:38;98857.14;;;1.49;61.03
45991;BME280;31721;41.740;-88.000;2023-01-10T04:42:06;98853.25;;;1.74;61.01
45991;BME280;31721;41.740;-88.000;2023-01-10T04:44:34;98855.85;;;1.45;61.61
45991;BME280;31721;41.740;-88.000;2023-01-10T04:47:02;98857.13;;;2.02;60.28
45991;BME280;31721;41.740;-88.000;2023-01-10T04:49:29;98859.14;;;2.02;59.90
45991;BME280;31721;41.740;-88.000;2023-01-10T04:51:57;98858.09;;;1.95;60.64
45991;BME280;31721;41.740;-88.000;2023-01-10T04:54:25;98854.20;;;1.68;60.60
45991;BME280;31721;41.740;-88.000;2023-01-10T04:56:53;98866.66;;;1.85;60.75
45991;BME280;31721;41.740;-88.000;2023-01-10T04:59:21;98868.37;;;2.14;60.07
45991;BME280;31721;41.740;-88.000;2023-01-10T05:01:49;98862.93;;;1.86;60.45
45991;BME280;31721;41.740;-88.000;2023-01-10T05:04:16;98855.66;;;1.71;60.89
45991;BME280;31721;41.740;-88.000;2023-01-10T05:06:44;98858.04;;;1.74;60.38
45991;BME280;31721;41.740;-88.000;2023-01-10T05:09:11;98866.57;;;1.97;60.06
45991;BME280;31721;41.740;-88.000;2023-01-10T05:11:39;98865.36;;;2.11;60.08
45991;BME280;31721;41.740;-88.000;2023-01-10T05:14:07;98862.05;;;1.95;60.14
45991;BME280;31721;41.740;-88.000;2023-01-10T05:16:34;98855.95;;;2.13;59.88
45991;BME280;31721;41.740;-88.000;2023-01-10T05:19:02;98849.70;;;2.09;59.80
45991;BME280;31721;41.740;-88.000;2023-01-10T05:21:30;98842.74;;;2.05;59.78
45991;BME280;31721;41.740;-88.000;2023-01-10T05:23:58;98833.97;;;2.32;59.46
45991;BME280;31721;41.740;-88.000;2023-01-10T05:26:25;98834.80;;;2.06;59.69
45991;BME280;31721;41.740;-88.000;2023-01-10T05:28:53;98829.41;;;2.06;59.89
45991;BME280;31721;41.740;-88.000;2023-01-10T05:31:20;98824.41;;;2.08;59.75
45991;BME280;31721;41.740;-88.000;2023-01-10T05:33:51;98823.25;;;2.02;59.61
45991;BME280;31721;41.740;-88.000;2023-01-10T05:36:18;98812.47;;;2.30;59.60
45991;BME280;31721;41.740;-88.000;2023-01-10T05:38:46;98806.89;;;2.33;59.37
45991;BME280;31721;41.740;-88.000;2023-01-10T05:41:14;98800.90;;;2.42;59.03
45991;BME280;31721;41.740;-88.000;2023-01-10T05:43:42;98798.44;;;2.20;59.48
45991;BME280;31721;41.740;-88.000;2023-01-10T05:46:09;98794.48;;;2.03;59.42
45991;BME280;31721;41.740;-88.000;2023-01-10T05:48:38;98784.88;;;2.32;59.48
45991;BME280;31721;41.740;-88.000;2023-01-10T05:51:05;98783.04;;;1.46;60.61
45991;BME280;31721;41.740;-88.000;2023-01-10T05:53:33;98772.75;;;2.00;59.77
45991;BME280;31721;41.740;-88.000;2023-01-10T05:56:02;98773.45;;;1.72;60.24
45991;BME280;31721;41.740;-88.000;2023-01-10T05:58:30;98766.69;;;2.07;59.83
45991;BME280;31721;41.740;-88.000;2023-01-10T06:00:58;98755.03;;;2.24;59.74
45991;BME280;31721;41.740;-88.000;2023-01-10T06:03:26;98746.76;;;2.16;59.63
45991;BME280;31721;41.740;-88.000;2023-01-10T06:05:54;98746.50;;;2.12;59.59
45991;BME280;31721;41.740;-88.000;2023-01-10T06:08:22;98746.02;;;1.65;60.49
45991;BME280;31721;41.740;-88.000;2023-01-10T06:10:50;98731.66;;;1.79;59.96
45991;BME280;31721;41.740;-88.000;2023-01-10T06:13:18;98718.68;;;1.99;59.75
45991;BME280;31721;41.740;-88.000;2023-01-10T06:15:46;98695.96;;;1.78;60.02
45991;BME280;31721;41.740;-88.000;2023-01-10T06:18:14;98701.74;;;2.21;59.65
45991;BME280;31721;41.740;-88.000;2023-01-10T06:20:43;98706.92;;;1.96;59.50
45991;BME280;31721;41.740;-88.000;2023-01-10T06:23:12;98696.15;;;2.05;59.45
45991;BME280;31721;41.740;-88.000;2023-01-10T06:25:39;98693.94;;;1.81;60.13
45991;BME280;31721;41.740;-88.000;2023-01-10T06:28:07;98710.80;;;2.05;59.64
45991;BME280;31721;41.740;-88.000;2023-01-10T06:30:35;98716.21;;;2.21;59.31
45991;BME280;31721;41.740;-88.000;2023-01-10T06:33:05;98704.14;;;2.00;59.54
45991;BME280;31721;41.740;-88.000;2023-01-10T06:35:34;98692.87;;;1.90;59.71
45991;BME280;31721;41.740;-88.000;2023-01-10T06:38:02;98682.88;;;1.39;60.81
45991;BME280;31721;41.740;-88.000;2023-01-10T06:40:30;98683.86;;;1.69;60.41
45991;BME280;31721;41.740;-88.000;2023-01-10T06:42:58;98678.79;;;1.90;60.04
45991;BME280;31721;41.740;-88.000;2023-01-10T06:45:26;98681.38;;;2.12;59.43
45991;BME280;31721;41.740;-88.000;2023-01-10T06:47:54;98679.87;;;2.21;59.22
45991;BME280;31721;41.740;-88.000;2023-01-10T06:50:22;98673.31;;;2.06;59.48
45991;BME280;31721;41.740;-88.000;2023-01-10T06:52:55;98667.29;;;2.41;59.15
45991;BME280;31721;41.740;-88.000;2023-01-10T06:55:23;98657.52;;;2.57;58.78
45991;BME280;31721;41.740;-88.000;2023-01-10T06:57:55;98660.61;;;2.46;58.84
45991;BME280;31721;41.740;-88.000;2023-01-10T07:00:23;98658.13;;;2.40;58.68
45991;BME280;31721;41.740;-88.000;2023-01-10T07:02:51;98662.60;;;2.40;59.12
45991;BME280;31721;41.740;-88.000;2023-01-10T07:05:19;98661.55;;;2.58;58.72
45991;BME280;31721;41.740;-88.000;2023-01-10T07:07:47;98680.06;;;2.70;58.68
45991;BME280;31721;41.740;-88.000;2023-01-10T07:10:16;98678.45;;;2.76;58.28
45991;BME280;31721;41.740;-88.000;2023-01-10T07:12:44;98653.29;;;2.77;58.05
45991;BME280;31721;41.740;-88.000;2023-01-10T07:15:11;98652.65;;;2.64;58.50
45991;BME280;31721;41.740;-88.000;2023-01-10T07:17:39;98657.81;;;2.49;58.59
45991;BME280;31721;41.740;-88.000;2023-01-10T07:20:08;98660.14;;;2.79;58.27
45991;BME280;31721;41.740;-88.000;2023-01-10T07:22:36;98658.57;;;2.53;58.33
45991;BME280;31721;41.740;-88.000;2023-01-10T07:25:04;98648.81;;;2.02;59.08
45991;BME280;31721;41.740;-88.000;2023-01-10T07:27:32;98651.64;;;2.20;59.11
45991;BME280;31721;41.740;-88.000;2023-01-10T07:29:59;98649.32;;;2.10;59.37
45991;BME280;31721;41.740;-88.000;2023-01-10T07:32:27;98648.89;;;1.95;59.50
45991;BME280;31721;41.740;-88.000;2023-01-10T07:34:55;98637.33;;;1.81;59.81
45991;BME280;31721;41.740;-88.000;2023-01-10T07:37:22;98641.68;;;1.91;60.14
45991;BME280;31721;41.740;-88.000;2023-01-10T07:39:50;98640.59;;;1.84;60.16
45991;BME280;31721;41.740;-88.000;2023-01-10T07:42:18;98634.47;;;1.80;60.15
45991;BME280;31721;41.740;-88.000;2023-01-10T07:44:46;98628.46;;;1.82;59.78
45991;BME280;31721;41.740;-88.000;2023-01-10T07:47:13;98619.61;;;1.56;60.49
45991;BME280;31721;41.740;-88.000;2023-01-10T07:49:41;98615.70;;;1.91;59.81
45991;BME280;31721;41.740;-88.000;2023-01-10T07:52:09;98607.64;;;1.72;59.96
45991;BME280;31721;41.740;-88.000;2023-01-10T07:54:37;98604.82;;;1.78;59.98
45991;BME280;31721;41.740;-88.000;2023-01-10T07:57:04;98599.13;;;1.47;60.38
45991;BME280;31721;41.740;-88.000;2023-01-10T07:59:32;98597.62;;;1.51;60.69
45991;BME280;31721;41.740;-88.000;2023-01-10T08:02:04;98597.47;;;1.67;60.36
45991;BME280;31721;41.740;-88.000;2023-01-10T08:04:32;98595.49;;;1.81;59.84
45991;BME280;31721;41.740;-88.000;2023-01-10T08:07:00;98597.21;;;1.76;60.07
45991;BME280;31721;41.740;-88.000;2023-01-10T08:09:28;98591.81;;;1.81;59.68
45991;BME280;31721;41.740;-88.000;2023-01-10T08:11:56;98595.18;;;1.54;60.56
45991;BME280;31721;41.740;-88.000;2023-01-10T08:14:24;98599.44;;;2.16;59.68
45991;BME280;31721;41.740;-88.000;2023-01-10T08:16:52;98591.55;;;1.57;60.41
45991;BME280;31721;41.740;-88.000;2023-01-10T08:19:20;98590.58;;;1.76;60.05
45991;BME280;31721;41.740;-88.000;2023-01-10T08:21:47;98585.88;;;1.39;60.96
45991;BME280;31721;41.740;-88.000;2023-01-10T08:24:15;98588.20;;;1.33;61.07
45991;BME280;31721;41.740;-88.000;2023-01-10T08:26:42;98582.95;;;1.55;60.66
45991;BME280;31721;41.740;-88.000;2023-01-10T08:29:10;98585.43;;;1.28;61.11
45991;BME280;31721;41.740;-88.000;2023-01-10T08:31:40;98578.24;;;1.20;61.33
45991;BME280;31721;41.740;-88.000;2023-01-10T08:34:08;98574.79;;;1.88;60.21
45991;BME280;31721;41.740;-88.000;2023-01-10T08:36:36;98576.75;;;1.56;60.77
45991;BME280;31721;41.740;-88.000;2023-01-10T08:39:03;98570.80;;;1.66;60.36
45991;BME280;31721;41.740;-88.000;2023-01-10T08:41:30;98569.76;;;1.70;60.33
45991;BME280;31721;41.740;-88.000;2023-01-10T08:43:59;98570.87;;;1.76;60.22
45991;BME280;31721;41.740;-88.000;2023-01-10T08:46:27;98568.89;;;1.62;60.76
45991;BME280;31721;41.740;-88.000;2023-01-10T08:48:55;98562.03;;;1.83;60.46
45991;BME280;31721;41.740;-88.000;2023-01-10T08:51:39;98554.29;;;1.84;60.22
45991;BME280;31721;41.740;-88.000;2023-01-10T08:54:07;98546.69;;;1.80;60.51
45991;BME280;31721;41.740;-88.000;2023-01-10T08:56:34;98537.99;;;1.78;60.09
45991;BME280;31721;41.740;-88.000;2023-01-10T08:59:02;98534.35;;;1.98;59.84
45991;BME280;31721;41.740;-88.000;2023-01-10T09:01:30;98536.58;;;2.06;60.13
45991;BME280;31721;41.740;-88.000;2023-01-10T09:03:58;98534.75;;;2.03;60.17
45991;BME280;31721;41.740;-88.000;2023-01-10T09:06:26;98536.63;;;2.25;60.01
45991;BME280;31721;41.740;-88.000;2023-01-10T09:08:54;98537.03;;;2.14;59.88
45991;BME280;31721;41.740;-88.000;2023-01-10T09:11:22;98525.37;;;2.13;60.06
45991;BME280;31721;41.740;-88.000;2023-01-10T09:13:50;98525.69;;;2.06;59.93
45991;BME280;31721;41.740;-88.000;2023-01-10T09:16:18;98522.94;;;2.03;59.93
45991;BME280;31721;41.740;-88.000;2023-01-10T09:18:46;98516.93;;;2.36;59.86
45991;BME280;31721;41.740;-88.000;2023-01-10T09:21:14;98518.91;;;2.15;59.99
45991;BME280;31721;41.740;-88.000;2023-01-10T09:23:42;98518.25;;;2.00;59.90
45991;BME280;31721;41.740;-88.000;2023-01-10T09:26:09;98513.85;;;2.05;59.84
45991;BME280;31721;41.740;-88.000;2023-01-10T09:28:42;98511.63;;;2.20;59.73
45991;BME280;31721;41.740;-88.000;2023-01-10T09:31:10;98508.56;;;2.26;59.85
45991;BME280;31721;41.740;-88.000;2023-01-10T09:33:38;98502.52;;;1.46;61.41
45991;BME280;31721;41.740;-88.000;2023-01-10T09:36:06;98493.36;;;1.98;60.48
45991;BME280;31721;41.740;-88.000;2023-01-10T09:38:34;98494.21;;;1.61;60.95
45991;BME280;31721;41.740;-88.000;2023-01-10T09:41:16;98493.95;;;1.78;61.03
45991;BME280;31721;41.740;-88.000;2023-01-10T09:43:58;98493.47;;;1.96;60.69
45991;BME280;31721;41.740;-88.000;2023-01-10T09:46:38;98492.51;;;2.02;60.65
45991;BME280;31721;41.740;-88.000;2023-01-10T09:49:16;98488.30;;;2.07;60.07
45991;BME280;31721;41.740;-88.000;2023-01-10T09:51:48;98486.48;;;2.26;60.06
45991;BME280;31721;41.740;-88.000;2023-01-10T09:54:22;98481.34;;;2.15;60.06
45991;BME280;31721;41.740;-88.000;2023-01-10T09:56:52;98483.39;;;2.32;59.95
45991;BME280;31721;41.740;-88.000;2023-01-10T09:59:24;98477.91;;;2.06;60.25
45991;BME280;31721;41.740;-88.000;2023-01-10T10:01:59;98476.93;;;2.12;60.38
45991;BME280;31721;41.740;-88.000;2023-01-10T10:04:35;98476.81;;;2.42;60.19
45991;BME280;31721;41.740;-88.000;2023-01-10T10:07:04;98472.72;;;2.42;60.11
45991;BME280;31721;41.740;-88.000;2023-01-10T10:09:35;98471.97;;;2.14;60.12
45991;BME280;31721;41.740;-88.000;2023-01-10T10:12:16;98474.22;;;2.38;60.01
45991;BME280;31721;41.740;-88.000;2023-01-10T10:15:01;98473.99;;;2.12;60.04
45991;BME280;31721;41.740;-88.000;2023-01-10T10:17:38;98471.30;;;1.90;61.02
45991;BME280;31721;41.740;-88.000;2023-01-10T10:20:21;98474.33;;;1.94;60.56
45991;BME280;31721;41.740;-88.000;2023-01-10T10:22:59;98474.91;;;2.29;60.03
45991;BME280;31721;41.740;-88.000;2023-01-10T10:25:48;98471.41;;;2.22;59.67
45991;BME280;31721;41.740;-88.000;2023-01-10T10:28:40;98464.10;;;1.63;60.85
45991;BME280;31721;41.740;-88.000;2023-01-10T10:31:17;98462.78;;;1.85;60.32
45991;BME280;31721;41.740;-88.000;2023-01-10T10:33:56;98461.66;;;1.76;60.73
45991;BME280;31721;41.740;-88.000;2023-01-10T10:36:36;98458.60;;;1.91;60.39
45991;BME280;31721;41.740;-88.000;2023-01-10T10:39:05;98457.62;;;1.85;60.42
45991;BME280;31721;41.740;-88.000;2023-01-10T10:41:41;98457.73;;;2.22;60.26
45991;BME280;31721;41.740;-88.000;2023-01-10T10:44:24;98459.69;;;2.15;59.89
45991;BME280;31721;41.740;-88.000;2023-01-10T10:46:53;98455.73;;;2.20;60.09
45991;BME280;31721;41.740;-88.000;2023-01-10T10:49:32;98456.75;;;2.26;59.99
45991;BME280;31721;41.740;-88.000;2023-01-10T10:52:03;98460.07;;;2.26;59.77
45991;BME280;31721;41.740;-88.000;2023-01-10T10:54:35;98461.89;;;2.44;59.77
45991;BME280;31721;41.740;-88.000;2023-01-10T10:57:03;98462.51;;;2.38;59.91
45991;BME280;31721;41.740;-88.000;2023-01-10T10:59:31;98468.92;;;2.30;59.82
45991;BME280;31721;41.740;-88.000;2023-01-10T11:02:22;98471.44;;;2.52;59.81
45991;BME280;31721;41.740;-88.000;2023-01-10T11:04:52;98473.53;;;2.39;59.72
45991;BME280;31721;41.740;-88.000;2023-01-10T11:07:21;98475.33;;;2.40;59.56
45991;BME280;31721;41.740;-88.000;2023-01-10T11:09:51;98469.39;;;2.15;60.14
45991;BME280;31721;41.740;-88.000;2023-01-10T11:12:26;98472.55;;;2.12;60.18
45991;BME280;31721;41.740;-88.000;2023-01-10T11:14:55;98478.55;;;2.29;60.00
45991;BME280;31721;41.740;-88.000;2023-01-10T11:17:24;98483.60;;;2.29;60.02
45991;BME280;31721;41.740;-88.000;2023-01-10T11:19:58;98480.90;;;2.30;60.32
45991;BME280;31721;41.740;-88.000;2023-01-10T11:22:29;98480.75;;;2.03;60.61
45991;BME280;31721;41.740;-88.000;2023-01-10T11:24:59;98479.24;;;2.17;60.39
45991;BME280;31721;41.740;-88.000;2023-01-10T11:27:29;98483.20;;;2.27;60.51
45991;BME280;31721;41.740;-88.000;2023-01-10T11:30:00;98478.56;;;2.27;60.25
45991;BME280;31721;41.740;-88.000;2023-01-10T11:32:33;98475.44;;;2.32;60.23
45991;BME280;31721;41.740;-88.000;2023-01-10T11:35:08;98475.18;;;2.38;60.32
45991;BME280;31721;41.740;-88.000;2023-01-10T11:37:37;98468.52;;;2.32;60.75
45991;BME280;31721;41.740;-88.000;2023-01-10T11:40:20;98473.47;;;2.44;60.30
45991;BME280;31721;41.740;-88.000;2023-01-10T11:42:50;98473.77;;;2.27;60.15
45991;BME280;31721;41.740;-88.000;2023-01-10T11:45:25;98468.87;;;2.19;59.88
45991;BME280;31721;41.740;-88.000;2023-01-10T11:47:57;98474.57;;;2.29;60.00
45991;BME280;31721;41.740;-88.000;2023-01-10T11:50:27;98468.37;;;2.15;60.14
45991;BME280;31721;41.740;-88.000;2023-01-10T11:52:56;98473.49;;;2.35;60.05
45991;BME280;31721;41.740;-88.000;2023-01-10T11:55:26;98471.95;;;2.40;59.78
45991;BME280;31721;41.740;-88.000;2023-01-10T11:58:00;98469.86;;;2.49;59.60
45991;BME280;31721;41.740;-88.000;2023-01-10T12:00:33;98475.67;;;2.37;59.83
45991;BME280;31721;41.740;-88.000;2023-01-10T12:03:01;98481.98;;;2.56;59.63
45991;BME280;31721;41.740;-88.000;2023-01-10T12:05:30;98481.44;;;2.33;59.73
45991;BME280;31721;41.740;-88.000;2023-01-10T12:08:00;98485.48;;;2.42;59.49
45991;BME280;31721;41.740;-88.000;2023-01-10T12:10:28;98485.11;;;2.30;59.42
45991;BME280;31721;41.740;-88.000;2023-01-10T12:12:57;98482.28;;;2.44;59.60
45991;BME280;31721;41.740;-88.000;2023-01-10T12:15:28;98475.63;;;2.49;59.37
45991;BME280;31721;41.740;-88.000;2023-01-10T12:17:58;98474.74;;;2.19;59.56
45991;BME280;31721;41.740;-88.000;2023-01-10T12:20:28;98481.05;;;2.28;59.59
45991;BME280;31721;41.740;-88.000;2023-01-10T12:23:04;98482.50;;;2.44;59.62
45991;BME280;31721;41.740;-88.000;2023-01-10T12:25:35;98486.43;;;2.28;59.48
45991;BME280;31721;41.740;-88.000;2023-01-10T12:28:05;98486.53;;;2.32;59.52
45991;BME280;31721;41.740;-88.000;2023-01-10T12:30:41;98488.50;;;2.21;59.48
45991;BME280;31721;41.740;-88.000;2023-01-10T12:33:12;98497.32;;;2.32;59.44
45991;BME280;31721;41.740;-88.000;2023-01-10T12:35:45;98494.09;;;1.88;59.69
45991;BME280;31721;41.740;-88.000;2023-01-10T12:38:23;98495.25;;;2.24;59.72
45991;BME280;31721;41.740;-88.000;2023-01-10T12:40:56;98495.95;;;2.26;59.50
45991;BME280;31721;41.740;-88.000;2023-01-10T12:43:29;98493.73;;;2.25;59.61
45991;BME280;31721;41.740;-88.000;2023-01-10T12:46:08;98493.03;;;2.19;59.67
45991;BME280;31721;41.740;-88.000;2023-01-10T12:48:42;98494.82;;;2.21;59.57
45991;BME280;31721;41.740;-88.000;2023-01-10T12:51:15;98493.01;;;2.27;59.30
45991;BME280;31721;41.740;-88.000;2023-01-10T12:53:49;98493.75;;;2.30;59.40
45991;BME280;31721;41.740;-88.000;2023-01-10T12:56:20;98495.28;;;2.23;59.10
45991;BME280;31721;41.740;-88.000;2023-01-10T12:58:51;98495.25;;;2.28;59.34
45991;BME280;31721;41.740;-88.000;2023-01-10T13:01:29;98488.39;;;2.27;59.25
45991;BME280;31721;41.740;-88.000;2023-01-10T13:04:02;98487.07;;;2.26;59.25
45991;BME280;31721;41.740;-88.000;2023-01-10T13:06:32;98485.51;;;2.22;59.35
45991;BME280;31721;41.740;-88.000;2023-01-10T13:09:05;98484.93;;;2.13;59.19
45991;BME280;31721;41.740;-88.000;2023-01-10T13:11:41;98484.75;;;1.91;59.36
45991;BME280;31721;41.740;-88.000;2023-01-10T13:14:14;98484.74;;;2.09;59.54